Grants Ranch, Colorado
Current Conditions -  °F | °C
As of 4:53 PM on Wednesday 28 Jan 2015 (Local Time) from KAPA Reporting Station
Few Clouds Few Clouds  
Wind Chill: 53°   Ceiling: Unl
Heat Index: 53°   Visibility: 10mi
Dew Point: 19°   Wind: 7mph
Humidity: 26%   Direction: 360°N
Pressure: 30.13"   Gusts: NA
Location:  39.5977°N, 105.071°W
Report Text: KAPA 282353Z 36006KT 10SM FEW070 FEW130 FEW200 12/M07 A3013 RMK AO2 SLP189 T01171072 10144 20117 53018
Loading
Personal Weather Stations






























Interactive Weather Map New forecast layout! Learn more

10-Day Weather Forecast

Advertisements
Track Severe Weather on mobile